Terminal Aerodrome Forecast
Issued by NWS

Home | Current Version | Previous Version | Text Only | Print | Product List | Glossary On
Versions: 1 2 3 4 5 6 7 8 9 10 11 12 13 14
000
FTUS45 KABQ 231725
TAFROW
TAF
KROW 231725Z 2318/2418 16009KT P6SM SCT050
     FM232000 13008KT P6SM VCSH BKN070
     FM232200 15009KT P6SM VCTS OVC060CB
     FM240100 16007KT P6SM BKN080
     FM240400 03006KT P6SM BKN070=

USA.gov is the U.S. government's official web portal to all federal, state and local government web resources and services.